Core, West Virginia
Current Conditions -  °F | °C
As of 7:53 AM on Thursday 23 Oct 2014 (Local Time) from KMGW Reporting Station
Overcast Overcast  
Wind Chill: 45°   Ceiling: 1400
Heat Index: 49°   Visibility: 10mi
Dew Point: 40°   Wind: 9mph
Humidity: 71%   Direction: 330°NNW
Pressure: 30.15"   Gusts: NA
Location:  39.68°N, 80.11°W
Report Text: KMGW 231153Z 33008KT 280V350 10SM OVC014 09/04 A3015 RMK AO2 SLP214 T00940044 10094 20083 51007
Loading
Personal Weather Stations






























Interactive Weather Map New forecast layout! Learn more

10-Day Weather Forecast

Advertisements
Track Severe Weather on mobile